Hempstead, New York
Current Conditions -  °F | °C
As of 7:51 PM on Monday 22 Dec 2014 (Local Time) from KJFK Reporting Station
Overcast Overcast  
Wind Chill:   Ceiling: 1900
Heat Index:   Visibility: 10mi
Dew Point:   Wind: 12mph
Humidity: 80%   Direction: 60°ENE
Pressure: 30.23"   Gusts: NA
Location:  40.71°N, 73.62°W
Report Text: KJFK 230051Z 06010KT 10SM OVC019 08/05 A3023 RMK AO2 SLP237 T00830050 $
Loading
Personal Weather Stations






























Interactive Weather Map New forecast layout! Learn more

10-Day Weather Forecast

Advertisements
Track Severe Weather on mobile